Time;durP1;ratioP1;P1;durP2;ratioP2;P2;SDS_P1;SDS_P2;PMS_P1;PMS_P2;Temp;Humidity;BMP_temperature;BMP_pressure;BME280_temperature;BME280_humidity;BME280_pressure;Samples;Min_cycle;Max_cycle;Signal;HPM_P1;HPM_P2
2023/09/24 00:02:10;;;;;;;5.00;2.40;;;;;;;;;;5072496;28;20032;-68
2023/09/24 00:04:37;;;;;;;4.72;2.30;;;;;;;;;;5072411;28;20017;-68
2023/09/24 00:07:05;;;;;;;4.20;2.50;;;;;;;;;;5072484;28;20027;-68
2023/09/24 00:09:32;;;;;;;7.03;2.50;;;;;;;;;;5072449;28;20028;-68
2023/09/24 00:11:58;;;;;;;8.02;2.65;;;;;;;;;;5072712;28;20023;-68
2023/09/24 00:14:30;;;;;;;4.28;2.10;;;;;;;;;;5072698;28;20028;-68
2023/09/24 00:16:57;;;;;;;4.00;2.47;;;;;;;;;;5072237;28;20503;-68
2023/09/24 00:19:26;;;;;;;6.65;2.60;;;;;;;;;;5072230;28;20035;-68
2023/09/24 00:21:53;;;;;;;4.43;2.15;;;;;;;;;;5072371;28;20031;-68
2023/09/24 00:24:19;;;;;;;6.32;2.53;;;;;;;;;;5072340;28;20027;-68
2023/09/24 00:26:46;;;;;;;3.38;2.30;;;;;;;;;;5072132;28;20025;-68
2023/09/24 00:29:13;;;;;;;6.90;2.25;;;;;;;;;;5072286;28;20021;-68
2023/09/24 00:31:40;;;;;;;4.90;2.15;;;;;;;;;;5072550;28;20043;-68
2023/09/24 00:34:06;;;;;;;4.63;2.47;;;;;;;;;;5071869;28;20023;-69
2023/09/24 00:36:36;;;;;;;4.25;2.38;;;;;;;;;;5071931;28;20036;-68
2023/09/24 00:39:02;;;;;;;3.40;2.22;;;;;;;;;;5072486;28;20019;-68
2023/09/24 00:41:29;;;;;;;4.22;2.30;;;;;;;;;;5072310;28;20370;-68
2023/09/24 00:43:57;;;;;;;5.20;2.58;;;;;;;;;;5072167;28;20021;-68
2023/09/24 00:46:23;;;;;;;4.15;2.40;;;;;;;;;;5072207;28;20020;-68
2023/09/24 00:48:51;;;;;;;5.32;2.35;;;;;;;;;;5072074;28;20028;-68
2023/09/24 00:51:18;;;;;;;5.13;2.83;;;;;;;;;;5072487;28;20013;-68
2023/09/24 00:53:46;;;;;;;4.65;2.33;;;;;;;;;;5081877;28;20520;-68
2023/09/24 00:56:13;;;;;;;4.15;2.35;;;;;;;;;;5092253;28;20043;-68
2023/09/24 00:58:39;;;;;;;7.85;2.78;;;;;;;;;;5074285;28;20024;-68
2023/09/24 01:01:09;;;;;;;5.93;2.60;;;;;;;;;;5092438;28;20027;-67
2023/09/24 01:03:39;;;;;;;4.60;2.28;;;;;;;;;;5091837;28;20435;-68
2023/09/24 01:06:06;;;;;;;3.47;2.50;;;;;;;;;;5092123;28;20023;-68
2023/09/24 01:08:33;;;;;;;3.58;1.98;;;;;;;;;;5074055;28;20032;-68
2023/09/24 01:11:03;;;;;;;4.80;2.20;;;;;;;;;;5092016;28;20036;-68
2023/09/24 01:13:41;;;;;;;5.30;2.37;;;;;;;;;;5092387;28;20020;-68
2023/09/24 01:16:09;;;;;;;3.15;2.05;;;;;;;;;;5073912;28;20515;-68
2023/09/24 01:18:37;;;;;;;6.85;2.20;;;;;;;;;;5093361;28;20020;-68
2023/09/24 01:21:07;;;;;;;5.07;2.58;;;;;;;;;;5095667;28;20032;-68
2023/09/24 01:23:37;;;;;;;6.15;2.42;;;;;;;;;;5095745;28;20021;-67
2023/09/24 01:26:03;;;;;;;4.25;2.47;;;;;;;;;;5095443;28;20035;-68
2023/09/24 01:28:30;;;;;;;3.78;2.15;;;;;;;;;;5095341;28;20097;-68
2023/09/24 01:30:57;;;;;;;5.38;2.17;;;;;;;;;;5095451;28;20020;-68
2023/09/24 01:33:23;;;;;;;3.33;2.13;;;;;;;;;;5095101;28;20020;-68
2023/09/24 01:35:50;;;;;;;4.88;2.40;;;;;;;;;;5095034;28;20032;-68
2023/09/24 01:38:16;;;;;;;3.65;2.10;;;;;;;;;;5095593;28;20040;-68
2023/09/24 01:40:42;;;;;;;6.30;2.83;;;;;;;;;;5060441;28;20503;-68
2023/09/24 01:43:09;;;;;;;3.85;2.33;;;;;;;;;;5077557;28;20034;-68
2023/09/24 01:45:39;;;;;;;4.65;2.30;;;;;;;;;;5095083;28;20016;-68
2023/09/24 01:48:05;;;;;;;2.17;1.65;;;;;;;;;;5094685;28;20043;-68
2023/09/24 01:50:32;;;;;;;6.40;2.67;;;;;;;;;;5094984;28;20028;-68
2023/09/24 01:52:59;;;;;;;3.22;2.08;;;;;;;;;;5094901;28;20058;-68
2023/09/24 01:55:26;;;;;;;4.07;2.78;;;;;;;;;;5094865;28;20077;-68
2023/09/24 01:57:53;;;;;;;4.28;2.40;;;;;;;;;;5076873;28;20062;-68
2023/09/24 02:02:50;;;;;;;6.97;2.55;;;;;;;;;;5095071;28;20028;-68
2023/09/24 02:05:16;;;;;;;5.80;2.53;;;;;;;;;;5094966;28;20089;-68
2023/09/24 02:07:43;;;;;;;4.43;2.30;;;;;;;;;;5094967;28;20031;-68
2023/09/24 02:10:09;;;;;;;5.32;2.35;;;;;;;;;;5076894;28;20023;-68
2023/09/24 02:12:36;;;;;;;6.43;2.50;;;;;;;;;;5094578;28;20472;-68
2023/09/24 02:15:12;;;;;;;3.08;1.80;;;;;;;;;;5094424;28;20028;-68
2023/09/24 02:17:42;;;;;;;3.65;2.40;;;;;;;;;;5094626;28;20506;-68
2023/09/24 02:20:35;;;;;;;2.92;2.17;;;;;;;;;;5094477;28;20030;-68
2023/09/24 02:23:00;;;;;;;3.30;2.40;;;;;;;;;;5076015;28;20036;-68
2023/09/24 02:25:30;;;;;;;5.47;2.17;;;;;;;;;;5094318;28;20024;-68
2023/09/24 02:27:57;;;;;;;3.05;2.00;;;;;;;;;;5076278;28;20068;-68
2023/09/24 02:30:25;;;;;;;3.78;2.03;;;;;;;;;;5093867;28;20024;-68
2023/09/24 02:32:51;;;;;;;3.38;2.20;;;;;;;;;;5094257;28;20378;-68
2023/09/24 02:35:18;;;;;;;5.07;2.20;;;;;;;;;;5093885;28;20480;-68
2023/09/24 02:37:50;;;;;;;4.82;2.45;;;;;;;;;;5076248;28;20032;-68
2023/09/24 02:40:26;;;;;;;7.20;2.35;;;;;;;;;;5094359;28;20144;-68
2023/09/24 02:42:56;;;;;;;5.88;2.75;;;;;;;;;;5094041;28;20026;-68
2023/09/24 02:45:23;;;;;;;3.72;2.05;;;;;;;;;;5093572;28;20023;-68
2023/09/24 02:47:49;;;;;;;6.90;2.65;;;;;;;;;;5093970;28;20038;-68
2023/09/24 02:50:16;;;;;;;6.38;2.40;;;;;;;;;;5093894;28;20028;-68
2023/09/24 02:52:43;;;;;;;4.30;2.20;;;;;;;;;;5093613;28;20024;-67
2023/09/24 02:55:16;;;;;;;3.95;2.42;;;;;;;;;;5093705;28;20491;-68
2023/09/24 02:57:44;;;;;;;4.13;2.10;;;;;;;;;;5093721;28;20028;-67
2023/09/24 03:00:26;;;;;;;5.80;2.70;;;;;;;;;;5093541;28;20012;-68
2023/09/24 03:02:53;;;;;;;6.50;2.30;;;;;;;;;;5093631;28;20028;-68
2023/09/24 03:05:20;;;;;;;4.80;2.50;;;;;;;;;;5093583;28;20416;-68
2023/09/24 03:07:48;;;;;;;3.80;2.35;;;;;;;;;;5093568;28;20024;-68
2023/09/24 03:10:14;;;;;;;4.55;2.17;;;;;;;;;;5093489;28;20383;-68
2023/09/24 03:12:41;;;;;;;4.43;2.47;;;;;;;;;;5093498;28;20025;-68
2023/09/24 03:15:10;;;;;;;4.95;2.35;;;;;;;;;;5093195;28;20032;-68
2023/09/24 03:17:36;;;;;;;4.45;2.53;;;;;;;;;;5093396;28;20020;-68
2023/09/24 03:20:14;;;;;;;8.80;2.60;;;;;;;;;;5093316;28;20477;-68
2023/09/24 03:22:48;;;;;;;4.65;2.53;;;;;;;;;;5093267;28;20519;-68
2023/09/24 03:25:16;;;;;;;5.57;2.40;;;;;;;;;;5093122;28;20025;-67
2023/09/24 03:27:43;;;;;;;4.50;2.25;;;;;;;;;;5093178;28;20031;-68
2023/09/24 03:30:10;;;;;;;3.92;2.30;;;;;;;;;;5093147;28;20031;-67
2023/09/24 03:32:39;;;;;;;4.95;2.33;;;;;;;;;;5093398;28;20020;-67
2023/09/24 03:35:09;;;;;;;3.40;2.20;;;;;;;;;;5092803;28;20434;-68
2023/09/24 03:37:37;;;;;;;5.63;2.58;;;;;;;;;;5093145;28;20024;-68
2023/09/24 03:40:06;;;;;;;4.55;2.53;;;;;;;;;;5093115;28;20038;-68
2023/09/24 03:42:32;;;;;;;5.10;2.08;;;;;;;;;;5092578;28;20020;-68
2023/09/24 03:45:00;;;;;;;4.93;2.40;;;;;;;;;;5093197;28;20024;-68
2023/09/24 03:47:26;;;;;;;5.40;2.83;;;;;;;;;;5092913;28;20020;-68
2023/09/24 03:49:52;;;;;;;3.30;2.40;;;;;;;;;;5092940;28;20020;-68
2023/09/24 03:52:19;;;;;;;3.83;2.20;;;;;;;;;;5092939;28;20035;-68
2023/09/24 03:54:45;;;;;;;5.85;2.72;;;;;;;;;;5092569;28;20092;-68
2023/09/24 03:57:11;;;;;;;4.15;2.42;;;;;;;;;;5092517;28;20040;-68
2023/09/24 03:59:38;;;;;;;4.72;2.53;;;;;;;;;;5092817;28;20012;-68
2023/09/24 04:02:07;;;;;;;5.90;2.53;;;;;;;;;;5092592;28;20040;-68
2023/09/24 04:04:35;;;;;;;5.15;2.38;;;;;;;;;;5092660;28;20373;-68
2023/09/24 04:07:02;;;;;;;4.25;2.55;;;;;;;;;;5092672;28;20502;-68
2023/09/24 04:09:32;;;;;;;3.42;2.28;;;;;;;;;;5092738;28;20023;-68
2023/09/24 04:12:03;;;;;;;4.07;2.43;;;;;;;;;;5092328;28;20551;-68
2023/09/24 04:14:29;;;;;;;4.22;2.40;;;;;;;;;;5092753;28;20020;-68
2023/09/24 04:16:56;;;;;;;4.63;2.78;;;;;;;;;;5092539;28;20044;-68
2023/09/24 04:19:26;;;;;;;3.40;2.30;;;;;;;;;;5092525;28;20358;-68
2023/09/24 04:21:52;;;;;;;9.98;2.53;;;;;;;;;;5092655;28;20034;-67
2023/09/24 04:24:20;;;;;;;5.63;2.47;;;;;;;;;;5092484;28;20025;-68
2023/09/24 04:26:47;;;;;;;4.07;2.20;;;;;;;;;;5092350;28;20012;-68
2023/09/24 04:29:15;;;;;;;4.68;2.55;;;;;;;;;;5092517;28;20027;-68
2023/09/24 04:31:45;;;;;;;5.43;2.47;;;;;;;;;;5092381;28;20020;-68
2023/09/24 04:34:12;;;;;;;6.50;2.75;;;;;;;;;;5092456;28;20026;-68
2023/09/24 04:36:42;;;;;;;3.85;2.58;;;;;;;;;;5070857;28;20436;-68
2023/09/24 04:39:12;;;;;;;4.05;2.38;;;;;;;;;;5072248;28;20065;-68
2023/09/24 04:41:40;;;;;;;4.53;2.70;;;;;;;;;;5071947;28;20035;-67
2023/09/24 04:44:09;;;;;;;6.03;2.50;;;;;;;;;;5072400;28;20066;-68
2023/09/24 04:46:36;;;;;;;4.78;2.47;;;;;;;;;;5072035;28;20020;-68
2023/09/24 04:49:02;;;;;;;5.55;2.90;;;;;;;;;;5072140;28;20031;-68
2023/09/24 04:51:29;;;;;;;5.85;3.05;;;;;;;;;;5072118;28;20029;-68
2023/09/24 04:53:55;;;;;;;6.70;2.80;;;;;;;;;;5074179;28;20040;-68
2023/09/24 04:56:22;;;;;;;6.53;2.85;;;;;;;;;;5074311;28;20090;-68
2023/09/24 04:58:48;;;;;;;4.55;2.78;;;;;;;;;;5075672;28;20027;-67
2023/09/24 05:01:14;;;;;;;4.30;2.20;;;;;;;;;;5075699;28;20058;-68
2023/09/24 05:03:42;;;;;;;4.22;2.40;;;;;;;;;;5075784;28;20024;-68
2023/09/24 05:06:08;;;;;;;4.47;2.30;;;;;;;;;;5075531;28;20378;-67
2023/09/24 05:08:35;;;;;;;3.40;2.22;;;;;;;;;;5075645;28;20024;-68
2023/09/24 05:11:03;;;;;;;5.07;2.53;;;;;;;;;;5075251;28;20380;-68
2023/09/24 05:13:30;;;;;;;4.53;2.83;;;;;;;;;;5075540;28;20476;-68
2023/09/24 05:16:00;;;;;;;4.20;2.20;;;;;;;;;;5075516;28;20036;-68
2023/09/24 05:18:29;;;;;;;4.28;2.63;;;;;;;;;;5075665;28;20031;-67
2023/09/24 05:20:56;;;;;;;4.88;2.22;;;;;;;;;;5075467;28;20481;-67
2023/09/24 05:23:23;;;;;;;3.60;2.17;;;;;;;;;;5075254;28;20481;-68
2023/09/24 05:25:52;;;;;;;5.75;2.60;;;;;;;;;;5075496;28;20025;-67
2023/09/24 05:28:19;;;;;;;5.60;2.42;;;;;;;;;;5090904;28;20027;-68
2023/09/24 05:30:52;;;;;;;4.07;2.10;;;;;;;;;;5095426;28;20480;-68
2023/09/24 05:33:19;;;;;;;8.10;2.65;;;;;;;;;;5095643;28;20020;-68
2023/09/24 05:35:49;;;;;;;4.10;2.30;;;;;;;;;;5076895;28;20398;-67
2023/09/24 05:38:16;;;;;;;4.45;2.30;;;;;;;;;;5094902;28;20488;-68
2023/09/24 05:40:43;;;;;;;4.30;2.47;;;;;;;;;;5095283;28;20034;-68
2023/09/24 05:43:09;;;;;;;5.57;2.28;;;;;;;;;;5095170;28;20036;-68
2023/09/24 05:45:35;;;;;;;4.80;2.88;;;;;;;;;;5095404;28;20028;-68
2023/09/24 05:48:02;;;;;;;6.43;2.72;;;;;;;;;;5095313;28;20027;-68
2023/09/24 05:50:29;;;;;;;4.22;2.42;;;;;;;;;;5095016;28;20028;-68
2023/09/24 05:52:55;;;;;;;9.43;3.60;;;;;;;;;;5094539;28;20409;-68
2023/09/24 05:55:21;;;;;;;4.32;2.88;;;;;;;;;;5094840;28;20024;-68
2023/09/24 05:57:48;;;;;;;6.55;3.05;;;;;;;;;;5094996;28;20028;-67
2023/09/24 06:00:14;;;;;;;3.75;2.50;;;;;;;;;;5094876;28;20024;-67
2023/09/24 06:02:40;;;;;;;4.15;2.10;;;;;;;;;;5094880;28;20031;-67
2023/09/24 06:05:09;;;;;;;5.70;2.35;;;;;;;;;;5094521;28;20036;-68
2023/09/24 06:07:35;;;;;;;6.65;2.78;;;;;;;;;;5094403;28;20013;-67
2023/09/24 06:10:04;;;;;;;3.88;2.35;;;;;;;;;;5076690;28;20028;-68
2023/09/24 06:12:33;;;;;;;3.97;2.38;;;;;;;;;;5094568;28;20030;-67
2023/09/24 06:14:59;;;;;;;5.22;2.50;;;;;;;;;;5076472;28;20027;-68
2023/09/24 06:17:27;;;;;;;3.42;2.50;;;;;;;;;;5094472;28;20044;-68
2023/09/24 06:19:55;;;;;;;4.75;2.55;;;;;;;;;;5094783;28;20020;-68
2023/09/24 06:22:26;;;;;;;5.40;2.40;;;;;;;;;;5094180;28;20080;-68
2023/09/24 06:24:53;;;;;;;14.03;2.93;;;;;;;;;;5094275;28;20361;-68
2023/09/24 06:27:21;;;;;;;7.07;2.88;;;;;;;;;;5094507;28;20258;-68
2023/09/24 06:29:48;;;;;;;7.90;2.80;;;;;;;;;;5094266;28;20038;-67
2023/09/24 06:32:14;;;;;;;5.68;2.78;;;;;;;;;;5094288;28;20012;-68
2023/09/24 06:34:41;;;;;;;6.10;2.67;;;;;;;;;;5093995;28;20388;-67
2023/09/24 06:37:07;;;;;;;5.72;2.70;;;;;;;;;;5093864;28;20024;-68
2023/09/24 06:39:34;;;;;;;5.97;3.38;;;;;;;;;;5094390;28;20026;-68
2023/09/24 06:42:00;;;;;;;3.65;2.42;;;;;;;;;;5094086;28;20026;-67
2023/09/24 06:44:26;;;;;;;4.82;2.88;;;;;;;;;;5094228;28;20024;-68
2023/09/24 06:46:53;;;;;;;4.50;3.10;;;;;;;;;;5093995;28;20494;-68
2023/09/24 06:49:19;;;;;;;4.18;3.00;;;;;;;;;;5093875;28;20027;-67
2023/09/24 06:51:46;;;;;;;7.93;3.05;;;;;;;;;;5093940;28;20042;-67
2023/09/24 06:54:12;;;;;;;4.13;2.67;;;;;;;;;;5093718;28;20040;-67
2023/09/24 06:56:39;;;;;;;6.15;3.00;;;;;;;;;;5093779;28;20043;-68
2023/09/24 06:59:09;;;;;;;6.97;2.90;;;;;;;;;;5093799;28;20023;-68
2023/09/24 07:01:37;;;;;;;5.47;2.60;;;;;;;;;;5093946;28;20046;-68
2023/09/24 07:04:06;;;;;;;4.10;2.67;;;;;;;;;;5093562;28;20028;-68
2023/09/24 07:06:33;;;;;;;4.07;2.40;;;;;;;;;;5093253;28;20043;-67
2023/09/24 07:09:00;;;;;;;4.80;2.50;;;;;;;;;;5093898;28;20016;-68
2023/09/24 07:11:36;;;;;;;6.90;2.92;;;;;;;;;;5093535;28;20020;-68
2023/09/24 07:14:04;;;;;;;5.32;2.75;;;;;;;;;;5093378;28;20016;-68
2023/09/24 07:16:30;;;;;;;4.28;2.53;;;;;;;;;;5093003;28;20042;-68
2023/09/24 07:18:57;;;;;;;7.47;2.67;;;;;;;;;;5093664;28;20024;-67
2023/09/24 07:21:25;;;;;;;4.78;2.70;;;;;;;;;;5092999;28;20028;-68
2023/09/24 07:23:54;;;;;;;5.38;3.08;;;;;;;;;;5093159;28;20038;-68
2023/09/24 07:26:22;;;;;;;5.35;2.40;;;;;;;;;;5093377;28;20020;-68
2023/09/24 07:28:49;;;;;;;4.60;2.67;;;;;;;;;;5093426;28;20026;-68
2023/09/24 07:31:21;;;;;;;4.38;2.30;;;;;;;;;;5074943;28;20084;-67
2023/09/24 07:33:48;;;;;;;6.65;2.78;;;;;;;;;;5093514;28;20030;-68
2023/09/24 07:36:15;;;;;;;7.65;3.03;;;;;;;;;;5092477;28;20032;-68
2023/09/24 07:38:41;;;;;;;4.55;2.42;;;;;;;;;;5093133;28;20489;-68
2023/09/24 07:41:08;;;;;;;4.65;2.72;;;;;;;;;;5093375;28;20016;-68
2023/09/24 07:43:38;;;;;;;6.63;2.92;;;;;;;;;;5093273;28;20024;-67
2023/09/24 07:46:05;;;;;;;5.93;2.75;;;;;;;;;;5092934;28;20069;-68
2023/09/24 07:48:32;;;;;;;3.15;2.40;;;;;;;;;;5092478;28;20430;-67
2023/09/24 07:50:58;;;;;;;4.50;2.30;;;;;;;;;;5092778;28;20052;-68
2023/09/24 07:53:25;;;;;;;5.80;2.22;;;;;;;;;;5074813;28;20052;-68
2023/09/24 07:55:55;;;;;;;7.57;2.70;;;;;;;;;;5092719;28;20032;-68
2023/09/24 07:58:22;;;;;;;6.63;2.40;;;;;;;;;;5093129;28;20034;-68
2023/09/24 08:00:49;;;;;;;4.35;2.65;;;;;;;;;;5092936;28;20032;-68
2023/09/24 08:03:16;;;;;;;5.03;2.70;;;;;;;;;;5092418;28;20529;-68
2023/09/24 08:05:42;;;;;;;3.80;2.47;;;;;;;;;;5092694;28;20020;-69
2023/09/24 08:08:09;;;;;;;3.42;2.50;;;;;;;;;;5092976;28;20036;-68
2023/09/24 08:10:35;;;;;;;3.80;2.50;;;;;;;;;;5092702;28;20032;-69
2023/09/24 08:13:04;;;;;;;3.35;2.22;;;;;;;;;;5092570;28;20368;-69
2023/09/24 08:15:31;;;;;;;4.72;2.25;;;;;;;;;;5092607;28;20490;-68
2023/09/24 08:17:57;;;;;;;3.25;2.28;;;;;;;;;;5092304;28;20020;-69
2023/09/24 08:20:24;;;;;;;5.35;2.45;;;;;;;;;;5092932;28;20031;-68
2023/09/24 08:22:50;;;;;;;4.85;2.63;;;;;;;;;;5092612;28;20618;-68
2023/09/24 08:25:16;;;;;;;4.95;2.35;;;;;;;;;;5092661;28;20028;-68
2023/09/24 08:27:43;;;;;;;2.65;2.00;;;;;;;;;;5094613;28;20020;-69
2023/09/24 08:30:09;;;;;;;3.70;2.15;;;;;;;;;;5096951;28;20028;-69
2023/09/24 08:32:36;;;;;;;5.00;2.25;;;;;;;;;;5096278;28;20387;-68
2023/09/24 08:35:02;;;;;;;4.15;2.60;;;;;;;;;;5095336;28;20026;-69
2023/09/24 08:37:28;;;;;;;3.33;2.38;;;;;;;;;;5096412;28;20438;-69
2023/09/24 08:39:55;;;;;;;4.05;2.38;;;;;;;;;;5096539;28;20028;-69
2023/09/24 08:42:22;;;;;;;3.67;2.30;;;;;;;;;;5078561;28;20039;-69
2023/09/24 08:44:51;;;;;;;2.50;2.08;;;;;;;;;;5096328;28;20390;-68
2023/09/24 08:47:18;;;;;;;4.47;2.08;;;;;;;;;;5096013;28;20384;-69
2023/09/24 08:49:47;;;;;;;3.08;2.20;;;;;;;;;;5078038;28;20032;-70
2023/09/24 08:52:15;;;;;;;2.95;2.20;;;;;;;;;;5078397;28;20357;-69
2023/09/24 08:54:42;;;;;;;5.07;2.63;;;;;;;;;;5095907;28;20040;-69
2023/09/24 08:57:08;;;;;;;2.45;1.73;;;;;;;;;;5096049;28;20036;-68
2023/09/24 08:59:35;;;;;;;2.75;2.15;;;;;;;;;;5096204;28;20024;-69
2023/09/24 09:02:02;;;;;;;3.45;2.00;;;;;;;;;;5095665;28;20058;-69
2023/09/24 09:04:28;;;;;;;2.47;1.90;;;;;;;;;;5096022;28;20020;-70
2023/09/24 09:06:57;;;;;;;2.97;2.22;;;;;;;;;;5096023;28;20062;-70
2023/09/24 09:09:24;;;;;;;2.35;2.15;;;;;;;;;;5095951;28;20016;-69
2023/09/24 09:11:51;;;;;;;5.70;2.10;;;;;;;;;;5096069;28;20384;-69
2023/09/24 09:14:32;;;;;;;4.18;1.95;;;;;;;;;;5095689;28;20016;-69
2023/09/24 09:16:59;;;;;;;3.03;1.98;;;;;;;;;;5095398;28;20031;-69
2023/09/24 09:19:25;;;;;;;2.90;2.30;;;;;;;;;;5095607;28;20444;-69
2023/09/24 09:21:52;;;;;;;3.15;2.33;;;;;;;;;;5095781;28;20028;-70
2023/09/24 09:24:25;;;;;;;4.43;2.45;;;;;;;;;;5095868;28;20093;-69
2023/09/24 09:26:55;;;;;;;4.88;2.60;;;;;;;;;;5095515;28;20027;-69
2023/09/24 09:29:25;;;;;;;5.78;2.53;;;;;;;;;;5095844;28;20036;-69
2023/09/24 09:31:54;;;;;;;3.95;2.70;;;;;;;;;;5095467;28;20024;-69
2023/09/24 09:34:23;;;;;;;3.00;2.15;;;;;;;;;;5095303;28;20050;-69
2023/09/24 09:36:50;;;;;;;5.03;2.63;;;;;;;;;;5095394;28;20040;-67
2023/09/24 09:39:16;;;;;;;3.15;2.38;;;;;;;;;;5094453;28;20028;-69
2023/09/24 09:41:43;;;;;;;3.88;2.30;;;;;;;;;;5095550;28;20042;-69
2023/09/24 09:44:11;;;;;;;3.72;2.75;;;;;;;;;;5095089;28;20023;-69
2023/09/24 09:46:46;;;;;;;3.38;2.58;;;;;;;;;;5094824;28;20054;-69
2023/09/24 09:49:13;;;;;;;5.38;3.05;;;;;;;;;;5095067;28;20020;-69
2023/09/24 09:51:43;;;;;;;3.75;2.40;;;;;;;;;;5095167;28;20028;-69
2023/09/24 09:54:10;;;;;;;2.80;2.20;;;;;;;;;;5094836;28;20089;-69
2023/09/24 09:56:37;;;;;;;3.65;2.22;;;;;;;;;;5094902;28;20062;-69
2023/09/24 09:59:04;;;;;;;5.63;2.20;;;;;;;;;;5094623;28;20023;-69
2023/09/24 10:01:31;;;;;;;2.53;1.92;;;;;;;;;;5094933;28;20036;-69
2023/09/24 10:03:58;;;;;;;3.72;2.13;;;;;;;;;;5094839;28;20376;-69
2023/09/24 10:06:25;;;;;;;3.22;2.30;;;;;;;;;;5095061;28;20032;-69
2023/09/24 10:08:52;;;;;;;4.13;2.53;;;;;;;;;;5095079;28;20022;-69
2023/09/24 10:11:33;;;;;;;3.45;2.28;;;;;;;;;;5094943;28;20050;-69
2023/09/24 10:14:00;;;;;;;3.80;2.30;;;;;;;;;;5094282;28;20020;-69
2023/09/24 10:16:29;;;;;;;5.05;2.38;;;;;;;;;;5094608;28;20028;-69
2023/09/24 10:18:59;;;;;;;6.00;3.05;;;;;;;;;;5094682;28;20026;-68
2023/09/24 10:21:31;;;;;;;5.93;2.33;;;;;;;;;;5094833;28;20020;-69
2023/09/24 10:23:58;;;;;;;3.45;2.42;;;;;;;;;;5094411;28;20077;-69
2023/09/24 10:26:43;;;;;;;2.92;2.22;;;;;;;;;;5094636;28;20028;-69
2023/09/24 10:29:09;;;;;;;4.18;2.60;;;;;;;;;;5073857;28;20016;-69
2023/09/24 10:31:56;;;;;;;4.43;2.45;;;;;;;;;;5073143;28;20038;-69
2023/09/24 10:34:22;;;;;;;3.13;2.22;;;;;;;;;;5075259;28;20028;-68
2023/09/24 10:37:09;;;;;;;2.80;2.05;;;;;;;;;;5076257;28;20047;-69
2023/09/24 10:39:55;;;;;;;3.28;2.28;;;;;;;;;;5094207;28;20036;-69
2023/09/24 10:42:22;;;;;;;3.13;2.20;;;;;;;;;;5093728;28;20020;-68
2023/09/24 10:45:08;;;;;;;3.10;2.08;;;;;;;;;;5093993;28;20035;-69
2023/09/24 10:47:36;;;;;;;4.00;2.10;;;;;;;;;;5093986;28;20032;-69
2023/09/24 10:50:03;;;;;;;5.05;2.08;;;;;;;;;;5093922;28;20018;-69
2023/09/24 10:52:50;;;;;;;4.22;2.50;;;;;;;;;;5093939;28;20028;-68
2023/09/24 10:55:21;;;;;;;3.35;2.33;;;;;;;;;;5093920;28;20040;-69
2023/09/24 10:57:50;;;;;;;2.60;2.10;;;;;;;;;;5093424;28;20042;-69
2023/09/24 11:00:17;;;;;;;2.78;2.15;;;;;;;;;;5094070;28;20016;-69
2023/09/24 11:02:44;;;;;;;2.90;2.30;;;;;;;;;;5093713;28;20022;-69
2023/09/24 11:05:10;;;;;;;2.67;2.17;;;;;;;;;;5075470;28;20027;-69
2023/09/24 11:07:37;;;;;;;2.78;2.20;;;;;;;;;;5093906;28;20020;-69
2023/09/24 11:10:04;;;;;;;4.70;2.38;;;;;;;;;;5075415;28;20035;-69
2023/09/24 11:12:30;;;;;;;3.50;2.30;;;;;;;;;;5093588;28;20023;-69
2023/09/24 11:14:57;;;;;;;3.95;1.90;;;;;;;;;;5093530;28;20065;-69
2023/09/24 11:17:24;;;;;;;5.78;2.30;;;;;;;;;;5093489;28;20028;-69
2023/09/24 11:19:51;;;;;;;2.35;2.00;;;;;;;;;;5093434;28;20380;-69
2023/09/24 11:22:17;;;;;;;5.00;2.35;;;;;;;;;;5075253;28;20020;-69
2023/09/24 11:24:44;;;;;;;4.57;2.30;;;;;;;;;;5093539;28;20024;-69
2023/09/24 11:27:10;;;;;;;2.80;2.00;;;;;;;;;;5092881;28;20018;-70
2023/09/24 11:29:37;;;;;;;7.13;2.53;;;;;;;;;;5093647;28;20024;-69
2023/09/24 11:32:03;;;;;;;3.40;2.25;;;;;;;;;;5093153;28;20391;-69
2023/09/24 11:34:29;;;;;;;3.50;2.22;;;;;;;;;;5093081;28;20065;-69
2023/09/24 11:36:56;;;;;;;2.75;2.22;;;;;;;;;;5093031;28;20047;-70
2023/09/24 11:39:23;;;;;;;3.35;2.10;;;;;;;;;;5093112;28;20019;-69
2023/09/24 11:41:52;;;;;;;2.50;2.30;;;;;;;;;;5092785;28;20392;-69
2023/09/24 11:44:19;;;;;;;3.83;2.28;;;;;;;;;;5093329;28;20026;-69
2023/09/24 11:46:46;;;;;;;3.22;2.25;;;;;;;;;;5092982;28;20023;-70
2023/09/24 11:49:12;;;;;;;3.72;2.35;;;;;;;;;;5092862;28;20077;-70
2023/09/24 11:51:39;;;;;;;2.70;2.25;;;;;;;;;;5092968;28;20042;-70
2023/09/24 11:54:05;;;;;;;4.47;2.35;;;;;;;;;;5092728;28;20043;-70
2023/09/24 11:56:31;;;;;;;2.42;2.22;;;;;;;;;;5092793;28;20058;-70
2023/09/24 11:58:59;;;;;;;3.45;2.40;;;;;;;;;;5092889;28;20032;-70
2023/09/24 12:01:26;;;;;;;3.35;2.30;;;;;;;;;;5092627;28;20020;-70
2023/09/24 12:03:53;;;;;;;2.70;2.30;;;;;;;;;;5092711;28;20032;-70
2023/09/24 12:06:20;;;;;;;3.20;2.90;;;;;;;;;;5092767;28;20047;-70
2023/09/24 12:08:46;;;;;;;3.28;2.58;;;;;;;;;;5092713;28;20020;-70
2023/09/24 12:11:13;;;;;;;2.97;2.60;;;;;;;;;;5092800;28;20028;-68
2023/09/24 12:13:39;;;;;;;2.60;2.35;;;;;;;;;;5092815;28;20017;-68
2023/09/24 12:16:06;;;;;;;5.28;2.90;;;;;;;;;;5092605;28;20020;-68
2023/09/24 12:18:32;;;;;;;2.70;2.50;;;;;;;;;;5074649;28;20016;-68
2023/09/24 12:20:58;;;;;;;4.90;2.60;;;;;;;;;;5092630;28;20020;-68
2023/09/24 12:23:25;;;;;;;3.05;2.75;;;;;;;;;;5092744;28;20046;-68
2023/09/24 12:25:52;;;;;;;3.08;2.78;;;;;;;;;;5092077;28;20388;-69
2023/09/24 12:28:19;;;;;;;3.10;2.80;;;;;;;;;;5092425;28;20039;-68
2023/09/24 12:30:46;;;;;;;3.03;2.78;;;;;;;;;;5092552;28;20477;-68
2023/09/24 12:33:13;;;;;;;3.00;2.70;;;;;;;;;;5092494;28;20027;-68
2023/09/24 12:35:42;;;;;;;3.97;2.70;;;;;;;;;;5092540;28;20016;-69
2023/09/24 12:38:09;;;;;;;;;;;;;;;;;;5058310;28;20042;-69
2023/09/24 12:40:35;;;;;;;3.42;3.05;;;;;;;;;;5092003;28;19914;-69
2023/09/24 12:43:02;;;;;;;3.55;2.90;;;;;;;;;;5092455;28;20028;-69
2023/09/24 12:45:28;;;;;;;3.40;3.10;;;;;;;;;;5092350;28;20016;-69
2023/09/24 12:47:55;;;;;;;4.00;3.03;;;;;;;;;;5092289;28;20553;-68
2023/09/24 12:50:21;;;;;;;2.85;2.65;;;;;;;;;;5092642;28;20017;-69
2023/09/24 12:52:48;;;;;;;3.95;3.20;;;;;;;;;;5092495;28;20028;-69
2023/09/24 12:55:16;;;;;;;3.17;2.88;;;;;;;;;;5092019;28;20050;-69
2023/09/24 12:57:46;;;;;;;3.40;3.08;;;;;;;;;;5092484;28;20020;-69
2023/09/24 13:00:14;;;;;;;3.65;3.00;;;;;;;;;;5092491;28;20384;-68
2023/09/24 13:02:47;;;;;;;3.25;2.95;;;;;;;;;;5092384;28;20046;-68
2023/09/24 13:05:14;;;;;;;2.90;2.53;;;;;;;;;;5092316;28;20026;-69
2023/09/24 13:07:43;;;;;;;3.63;3.25;;;;;;;;;;5091885;28;20039;-69
2023/09/24 13:10:10;;;;;;;2.80;2.60;;;;;;;;;;5092190;28;20019;-68
2023/09/24 13:12:36;;;;;;;3.17;2.72;;;;;;;;;;5092337;28;20032;-68
2023/09/24 13:15:02;;;;;;;3.30;2.88;;;;;;;;;;5094497;28;20473;-69
2023/09/24 13:17:29;;;;;;;3.42;2.92;;;;;;;;;;5095828;28;20487;-68
2023/09/24 13:19:56;;;;;;;3.47;3.10;;;;;;;;;;5095990;28;20033;-68
2023/09/24 13:22:22;;;;;;;3.28;2.60;;;;;;;;;;5095295;28;20032;-68
2023/09/24 13:24:49;;;;;;;3.03;2.72;;;;;;;;;;5095618;28;20362;-68
2023/09/24 13:27:15;;;;;;;3.10;2.78;;;;;;;;;;5095501;28;20044;-68
2023/09/24 13:29:41;;;;;;;3.83;3.00;;;;;;;;;;5095909;28;20023;-68
2023/09/24 13:32:08;;;;;;;3.05;2.83;;;;;;;;;;5095478;28;20484;-68
2023/09/24 13:34:34;;;;;;;2.85;2.65;;;;;;;;;;5095229;28;20383;-68
2023/09/24 13:37:00;;;;;;;7.22;2.90;;;;;;;;;;5095371;28;20036;-68
2023/09/24 13:39:27;;;;;;;2.67;2.47;;;;;;;;;;5095327;28;20414;-70
2023/09/24 13:41:53;;;;;;;4.07;2.75;;;;;;;;;;5095595;28;20020;-70
2023/09/24 13:44:19;;;;;;;3.30;3.00;;;;;;;;;;5095338;28;20380;-70
2023/09/24 13:46:46;;;;;;;3.55;2.97;;;;;;;;;;5095144;28;20477;-70
2023/09/24 13:49:12;;;;;;;3.90;2.92;;;;;;;;;;5095158;28;20094;-70
2023/09/24 13:51:41;;;;;;;4.05;3.05;;;;;;;;;;5095040;28;20031;-70
2023/09/24 13:54:08;;;;;;;3.00;2.72;;;;;;;;;;5094835;28;20085;-70
2023/09/24 13:56:36;;;;;;;3.00;2.60;;;;;;;;;;5095146;28;20024;-70
2023/09/24 13:59:02;;;;;;;2.83;2.63;;;;;;;;;;5095043;28;20036;-68
2023/09/24 14:01:29;;;;;;;3.22;2.80;;;;;;;;;;5094958;28;20021;-70
2023/09/24 14:03:55;;;;;;;3.17;2.88;;;;;;;;;;5095087;28;20024;-70
2023/09/24 14:06:22;;;;;;;3.50;3.00;;;;;;;;;;5094682;28;20109;-70
2023/09/24 14:14:18;;;;;;;3.38;2.80;;;;;;;;;;5094505;28;20021;-70
2023/09/24 14:16:44;;;;;;;3.03;2.80;;;;;;;;;;5094974;28;20024;-70
2023/09/24 14:19:11;;;;;;;3.25;2.58;;;;;;;;;;5094687;28;20510;-70
2023/09/24 14:21:38;;;;;;;4.40;2.78;;;;;;;;;;5094211;28;20026;-70
2023/09/24 14:24:05;;;;;;;2.80;2.58;;;;;;;;;;5094773;28;20031;-70
2023/09/24 14:26:31;;;;;;;2.97;2.47;;;;;;;;;;5093915;28;20081;-69
2023/09/24 14:28:58;;;;;;;3.28;2.88;;;;;;;;;;5093168;28;20032;-70
2023/09/24 14:31:24;;;;;;;2.95;2.72;;;;;;;;;;5094621;28;20022;-70
2023/09/24 14:33:51;;;;;;;2.95;2.70;;;;;;;;;;5106902;28;20489;-69
2023/09/24 14:36:18;;;;;;;2.95;2.65;;;;;;;;;;5095872;28;20024;-70
2023/09/24 14:38:44;;;;;;;3.10;2.80;;;;;;;;;;5093881;28;20023;-69
2023/09/24 14:41:11;;;;;;;5.47;2.67;;;;;;;;;;5093748;28;20028;-70
2023/09/24 14:43:38;;;;;;;3.88;2.95;;;;;;;;;;5093848;28;20016;-70
2023/09/24 14:46:05;;;;;;;3.65;2.95;;;;;;;;;;5093452;28;20030;-69
2023/09/24 14:48:31;;;;;;;4.05;2.97;;;;;;;;;;5093492;28;20508;-69
2023/09/24 14:50:58;;;;;;;3.28;2.80;;;;;;;;;;5093059;28;20024;-69
2023/09/24 14:53:25;;;;;;;3.55;2.80;;;;;;;;;;5092612;28;20406;-69
2023/09/24 14:55:51;;;;;;;3.00;2.70;;;;;;;;;;5093043;28;20484;-69